createdAt,value
2023-04-09T00:00:10.430Z,100447.30
2023-04-09T00:02:42.115Z,100448.17
2023-04-09T00:05:09.391Z,100449.84
2023-04-09T00:07:36.497Z,100448.98
2023-04-09T00:10:03.510Z,100447.50
2023-04-09T00:12:30.483Z,100446.95
2023-04-09T00:14:57.557Z,100445.48
2023-04-09T00:17:24.377Z,100441.23
2023-04-09T00:19:51.283Z,100439.83
2023-04-09T00:22:18.004Z,100437.77
2023-04-09T00:24:45.523Z,100439.23
2023-04-09T00:27:12.145Z,100436.95
2023-04-09T00:29:41.027Z,100442.88
2023-04-09T00:32:07.939Z,100443.11
2023-04-09T00:34:34.865Z,100439.73
2023-04-09T00:37:01.597Z,100438.96
2023-04-09T00:39:28.663Z,100434.06
2023-04-09T00:41:57.427Z,100435.52
2023-04-09T00:44:24.827Z,100439.65
2023-04-09T00:46:52.357Z,100438.64
2023-04-09T00:49:19.337Z,100439.93
2023-04-09T00:51:46.144Z,100436.90
2023-04-09T00:54:12.842Z,100438.67
2023-04-09T00:56:39.920Z,100443.52
2023-04-09T00:59:07.260Z,100442.80
2023-04-09T01:01:35.521Z,100443.48
2023-04-09T01:04:02.811Z,100443.29
2023-04-09T01:06:45.126Z,100445.98
2023-04-09T01:09:27.961Z,100443.33
2023-04-09T01:12:19.311Z,100444.11
2023-04-09T01:14:53.474Z,100445.41
2023-04-09T01:17:33.372Z,100450.53
2023-04-09T01:20:01.753Z,100453.20
2023-04-09T01:22:38.579Z,100448.64
2023-04-09T01:25:30.025Z,100447.21
2023-04-09T01:28:18.025Z,100446.67
2023-04-09T01:30:50.775Z,100447.52
2023-04-09T01:33:18.689Z,100452.40
2023-04-09T01:35:46.931Z,100451.98
2023-04-09T01:38:14.011Z,100447.02
2023-04-09T01:40:40.835Z,100449.27
2023-04-09T01:43:07.989Z,100445.45
2023-04-09T01:45:36.073Z,100441.13
2023-04-09T01:48:02.711Z,100441.60
2023-04-09T01:50:33.163Z,100442.81
2023-04-09T01:53:00.816Z,100444.73
2023-04-09T01:55:27.621Z,100445.93
2023-04-09T01:57:54.214Z,100446.12
2023-04-09T02:00:23.817Z,100444.27
2023-04-09T02:02:57.253Z,100445.05
2023-04-09T02:05:26.383Z,100441.94
2023-04-09T02:07:55.216Z,100443.19
2023-04-09T02:10:24.119Z,100442.65
2023-04-09T02:12:50.952Z,100443.35
2023-04-09T02:15:19.979Z,100441.02
2023-04-09T02:17:47.699Z,100446.33
2023-04-09T02:20:18.316Z,100445.80
2023-04-09T02:22:45.581Z,100444.02
2023-04-09T02:25:12.802Z,100446.69
2023-04-09T02:27:39.562Z,100445.09
2023-04-09T02:30:07.376Z,100448.23
2023-04-09T02:32:35.940Z,100451.91
2023-04-09T02:35:07.098Z,100457.52
2023-04-09T02:37:33.920Z,100460.15
2023-04-09T02:40:00.796Z,100454.40
2023-04-09T02:42:27.559Z,100456.25
2023-04-09T02:44:54.566Z,100458.64
2023-04-09T02:47:21.849Z,100458.20
2023-04-09T02:49:49.291Z,100457.48
2023-04-09T02:52:16.249Z,100458.20
2023-04-09T02:54:43.044Z,100458.36
2023-04-09T02:57:10.673Z,100459.55
2023-04-09T02:59:38.354Z,100450.06
2023-04-09T03:02:05.044Z,100451.25
2023-04-09T03:04:31.910Z,100448.23
2023-04-09T03:06:58.961Z,100449.54
2023-04-09T03:09:26.143Z,100457.31
2023-04-09T03:11:52.941Z,100460.67
2023-04-09T03:14:19.563Z,100463.64
2023-04-09T03:16:50.132Z,100460.21
2023-04-09T03:19:16.689Z,100459.20
2023-04-09T03:21:43.503Z,100460.60
2023-04-09T03:24:10.264Z,100464.46
2023-04-09T03:26:38.180Z,100463.58
2023-04-09T03:29:10.139Z,100467.86
2023-04-09T03:31:37.656Z,100468.11
2023-04-09T03:34:04.722Z,100471.17
2023-04-09T03:36:32.335Z,100467.88
2023-04-09T03:39:02.076Z,100469.83
2023-04-09T03:41:37.039Z,100469.07
2023-04-09T03:44:06.341Z,100464.39
2023-04-09T03:46:39.153Z,100462.63
2023-04-09T03:49:07.012Z,100463.16
2023-04-09T03:51:37.421Z,100461.39
2023-04-09T03:54:04.073Z,100459.07
2023-04-09T03:56:32.194Z,100458.48
2023-04-09T03:58:59.155Z,100454.56
2023-04-09T04:01:34.222Z,100454.69
2023-04-09T04:04:01.254Z,100448.30
2023-04-09T04:06:35.169Z,100458.73
2023-04-09T04:09:21.069Z,100455.91
2023-04-09T04:11:55.644Z,100459.46
2023-04-09T04:14:24.291Z,100463.61
2023-04-09T04:16:55.680Z,100467.05
2023-04-09T04:19:25.490Z,100468.89
2023-04-09T04:21:52.137Z,100462.48
2023-04-09T04:24:21.452Z,100463.02
2023-04-09T04:26:50.762Z,100463.27
2023-04-09T04:29:18.840Z,100474.23
2023-04-09T04:31:59.979Z,100479.70
2023-04-09T04:34:31.232Z,100478.48
2023-04-09T04:37:02.270Z,100478.23
2023-04-09T04:39:37.538Z,100477.00
2023-04-09T04:42:09.297Z,100473.16
2023-04-09T04:44:36.247Z,100472.69
2023-04-09T04:47:13.440Z,100473.60
2023-04-09T04:49:41.662Z,100478.06
2023-04-09T04:52:11.333Z,100482.72
2023-04-09T04:54:39.875Z,100483.29
2023-04-09T04:57:07.050Z,100481.33
2023-04-09T04:59:42.680Z,100481.48
2023-04-09T05:02:11.274Z,100485.08
2023-04-09T05:04:46.620Z,100482.88
2023-04-09T05:07:17.259Z,100484.78
2023-04-09T05:09:50.606Z,100485.52
2023-04-09T05:12:17.545Z,100481.65
2023-04-09T05:14:48.921Z,100486.16
2023-04-09T05:17:16.022Z,100489.89
2023-04-09T05:19:44.151Z,100491.73
2023-04-09T05:22:11.267Z,100491.60
2023-04-09T05:24:43.728Z,100487.55
2023-04-09T05:27:10.628Z,100485.55
2023-04-09T05:29:37.283Z,100487.38
2023-04-09T05:32:08.862Z,100490.24
2023-04-09T05:34:38.518Z,100490.08
2023-04-09T05:37:05.618Z,100486.61
2023-04-09T05:39:33.581Z,100482.98
2023-04-09T05:42:01.826Z,100483.48
2023-04-09T05:44:38.895Z,100475.80
2023-04-09T05:48:47.033Z,100477.26
2023-04-09T05:51:15.974Z,100478.13
2023-04-09T05:53:44.835Z,100470.85
2023-04-09T05:56:15.671Z,100472.57
2023-04-09T05:58:51.602Z,100475.84
2023-04-09T06:01:20.144Z,100474.16
2023-04-09T06:03:48.596Z,100471.23
2023-04-09T06:06:16.950Z,100476.38
2023-04-09T06:08:48.660Z,100481.48
2023-04-09T06:11:16.794Z,100485.66
2023-04-09T06:13:45.954Z,100489.65
2023-04-09T06:16:14.582Z,100489.21
2023-04-09T06:18:43.176Z,100484.21
2023-04-09T06:21:13.559Z,100487.97
2023-04-09T06:23:45.854Z,100488.53
2023-04-09T06:26:14.358Z,100490.52
2023-04-09T06:28:43.325Z,100494.36
2023-04-09T06:31:11.508Z,100495.33
2023-04-09T06:33:40.104Z,100499.17
2023-04-09T06:36:08.616Z,100496.89
2023-04-09T06:38:37.505Z,100496.14
2023-04-09T06:41:08.564Z,100496.02
2023-04-09T06:43:38.801Z,100494.98
2023-04-09T06:46:06.987Z,100497.27
2023-04-09T06:48:36.123Z,100499.57
2023-04-09T06:51:04.662Z,100498.66
2023-04-09T06:53:33.424Z,100502.42
2023-04-09T06:56:03.636Z,100503.44
2023-04-09T06:58:31.737Z,100506.39
2023-04-09T07:01:01.136Z,100509.38
2023-04-09T07:03:30.784Z,100508.35
2023-04-09T07:05:59.062Z,100508.17
2023-04-09T07:08:28.651Z,100507.30
2023-04-09T07:10:59.463Z,100510.14
2023-04-09T07:15:57.616Z,100508.52
2023-04-09T07:18:31.684Z,100508.57
2023-04-09T07:21:01.055Z,100507.65
2023-04-09T07:23:29.797Z,100504.74
2023-04-09T07:25:57.882Z,100499.88
2023-04-09T07:28:27.157Z,100502.37
2023-04-09T07:30:55.401Z,100498.45
2023-04-09T07:33:43.304Z,100505.70
2023-04-09T07:36:12.497Z,100498.72
2023-04-09T07:38:41.652Z,100499.02
2023-04-09T07:41:12.843Z,100499.63
2023-04-09T07:43:41.667Z,100497.83
2023-04-09T07:46:09.652Z,100492.82
2023-04-09T07:48:38.331Z,100492.42
2023-04-09T07:51:06.859Z,100498.57
2023-04-09T07:53:37.678Z,100497.18
2023-04-09T07:56:06.841Z,100495.52
2023-04-09T07:58:35.394Z,100498.95
2023-04-09T08:01:06.242Z,100497.14
2023-04-09T08:03:36.864Z,100492.77
2023-04-09T08:06:05.711Z,100495.71
2023-04-09T08:08:35.481Z,100492.27
2023-04-09T08:11:04.144Z,100493.34
2023-04-09T08:13:32.696Z,100490.23
2023-04-09T08:16:02.356Z,100492.00
2023-04-09T08:18:30.646Z,100495.46
2023-04-09T08:20:58.799Z,100494.48
2023-04-09T08:23:28.269Z,100487.77
2023-04-09T08:25:56.335Z,100492.95
2023-04-09T08:28:24.584Z,100486.94
2023-04-09T08:30:53.773Z,100483.92
2023-04-09T08:33:22.695Z,100481.59
2023-04-09T08:35:50.844Z,100482.09
2023-04-09T08:38:20.627Z,100483.94
2023-04-09T08:40:48.889Z,100481.77
2023-04-09T08:43:17.556Z,100478.91
2023-04-09T08:45:46.873Z,100477.43
2023-04-09T08:48:15.498Z,100470.46
2023-04-09T08:50:46.440Z,100464.55
2023-04-09T08:53:14.554Z,100458.55
2023-04-09T08:55:45.579Z,100465.06
2023-04-09T08:58:14.042Z,100460.16
2023-04-09T09:00:42.872Z,100457.14
2023-04-09T09:03:13.398Z,100460.17
2023-04-09T09:05:43.360Z,100466.28
2023-04-09T09:08:24.195Z,100475.20
2023-04-09T09:10:52.599Z,100473.33
2023-04-09T09:13:25.960Z,100463.30
2023-04-09T09:15:56.464Z,100467.35
2023-04-09T09:18:38.618Z,100457.30
2023-04-09T09:21:13.627Z,100454.43
2023-04-09T09:23:42.792Z,100458.08
2023-04-09T09:26:18.532Z,100461.96
2023-04-09T09:28:47.184Z,100458.12
2023-04-09T09:31:16.510Z,100452.17
2023-04-09T09:33:47.366Z,100450.59
2023-04-09T09:36:16.654Z,100445.84
2023-04-09T09:38:57.894Z,100448.25
2023-04-09T09:41:29.718Z,100450.48
2023-04-09T09:43:59.169Z,100440.08
2023-04-09T09:46:27.689Z,100437.98
2023-04-09T09:48:56.504Z,100442.95
2023-04-09T09:51:27.353Z,100450.95
2023-04-09T09:53:57.265Z,100444.80
2023-04-09T09:56:33.250Z,100437.65
2023-04-09T09:59:21.344Z,100432.09
2023-04-09T10:01:52.460Z,100429.80
2023-04-09T10:04:20.730Z,100427.24
2023-04-09T10:06:49.254Z,100436.73
2023-04-09T10:09:19.060Z,100428.44
2023-04-09T10:11:48.830Z,100427.02
2023-04-09T10:14:18.208Z,100433.22
2023-04-09T10:16:46.676Z,100425.17
2023-04-09T10:19:15.758Z,100420.00
2023-04-09T10:22:04.465Z,100412.39
2023-04-09T10:24:34.002Z,100428.81
2023-04-09T10:27:16.974Z,100426.88
2023-04-09T10:29:47.730Z,100419.65
2023-04-09T10:32:28.518Z,100421.36
2023-04-09T10:35:17.821Z,100415.09
2023-04-09T10:37:48.459Z,100406.66
2023-04-09T10:40:22.701Z,100408.27
2023-04-09T10:42:50.823Z,100401.34
2023-04-09T10:45:23.209Z,100401.15
2023-04-09T10:47:54.590Z,100395.65
2023-04-09T10:50:31.430Z,100396.09
2023-04-09T10:53:04.885Z,100396.13
2023-04-09T10:55:41.947Z,100403.83
2023-04-09T10:58:13.226Z,100399.63
2023-04-09T11:00:49.053Z,100398.96
2023-04-09T11:03:20.881Z,100391.38
2023-04-09T11:06:10.268Z,100383.42
2023-04-09T11:08:41.842Z,100384.30
2023-04-09T11:11:17.250Z,100382.83
2023-04-09T11:13:45.706Z,100376.81
2023-04-09T11:16:22.910Z,100370.46
2023-04-09T11:19:02.241Z,100367.27
2023-04-09T11:21:48.720Z,100375.42
2023-04-09T11:24:19.030Z,100369.21
2023-04-09T11:26:51.882Z,100362.38
2023-04-09T11:29:36.880Z,100365.05
2023-04-09T11:32:05.552Z,100360.45
2023-04-09T11:34:53.406Z,100368.86
2023-04-09T11:37:28.934Z,100362.27
2023-04-09T11:39:58.465Z,100360.55
2023-04-09T11:42:31.790Z,100360.24
2023-04-09T11:45:07.242Z,100350.70
2023-04-09T11:47:51.346Z,100349.71
2023-04-09T11:50:23.441Z,100339.90
2023-04-09T11:52:51.438Z,100326.06
2023-04-09T11:55:31.134Z,100333.17
2023-04-09T11:58:11.934Z,100331.16
2023-04-09T12:00:43.948Z,100336.61
2023-04-09T12:03:12.589Z,100339.92
2023-04-09T12:05:50.893Z,100336.19
2023-04-09T12:08:25.137Z,100328.23
2023-04-09T12:11:08.750Z,100328.24
2023-04-09T12:13:44.680Z,100326.36
2023-04-09T12:16:13.317Z,100321.64
2023-04-09T12:19:11.494Z,100316.00
2023-04-09T12:21:50.428Z,100318.08
2023-04-09T12:24:19.998Z,100305.04
2023-04-09T12:26:53.899Z,100295.27
2023-04-09T12:29:22.230Z,100290.89
2023-04-09T12:31:51.147Z,100295.11
2023-04-09T12:34:27.344Z,100303.96
2023-04-09T12:36:56.110Z,100299.13
2023-04-09T12:39:24.136Z,100298.88
2023-04-09T12:41:55.869Z,100293.80
2023-04-09T12:44:24.016Z,100294.98
2023-04-09T12:46:55.439Z,100279.42
2023-04-09T12:49:28.080Z,100284.13
2023-04-09T12:51:57.766Z,100265.78
2023-04-09T12:54:26.432Z,100269.40
2023-04-09T12:56:54.942Z,100279.77
2023-04-09T12:59:23.420Z,100282.06
2023-04-09T13:01:55.819Z,100289.20
2023-04-09T13:04:26.594Z,100283.39
2023-04-09T13:06:59.107Z,100281.26
2023-04-09T13:09:27.865Z,100273.60
2023-04-09T13:12:12.950Z,100271.02
2023-04-09T13:14:43.770Z,100280.73
2023-04-09T13:17:13.283Z,100284.46
2023-04-09T13:19:43.136Z,100301.98
2023-04-09T13:22:12.610Z,100307.11
2023-04-09T13:24:43.378Z,100292.38
2023-04-09T13:27:13.309Z,100287.55
2023-04-09T13:29:45.727Z,100288.55
2023-04-09T13:32:14.486Z,100291.20
2023-04-09T13:34:51.511Z,100294.96
2023-04-09T13:37:20.451Z,100296.46
2023-04-09T13:39:50.613Z,100286.14
2023-04-09T13:42:19.277Z,100301.12
2023-04-09T13:44:47.517Z,100305.02
2023-04-09T13:47:16.895Z,100299.20
2023-04-09T13:49:45.200Z,100301.07
2023-04-09T13:52:13.313Z,100321.66
2023-04-09T13:54:41.992Z,100323.30
2023-04-09T13:57:10.755Z,100316.50
2023-04-09T13:59:38.869Z,100319.59
2023-04-09T14:02:09.405Z,100320.80
2023-04-09T14:04:38.925Z,100330.33
2023-04-09T14:07:08.568Z,100333.33
2023-04-09T14:09:39.965Z,100330.45
2023-04-09T14:12:08.028Z,100332.83
2023-04-09T14:14:38.116Z,100340.23
2023-04-09T14:17:07.741Z,100343.45
2023-04-09T14:19:36.662Z,100349.80
2023-04-09T14:22:15.885Z,100358.59
2023-04-09T14:24:43.945Z,100360.52
2023-04-09T14:27:12.374Z,100360.42
2023-04-09T14:29:46.580Z,100377.27
2023-04-09T14:32:23.140Z,100394.05
2023-04-09T14:35:09.731Z,100379.05
2023-04-09T14:37:42.481Z,100375.23
2023-04-09T14:40:13.990Z,100370.17
2023-04-09T14:42:45.620Z,100361.46
2023-04-09T14:45:24.960Z,100356.14
2023-04-09T14:47:55.015Z,100361.38
2023-04-09T14:50:26.512Z,100366.23
2023-04-09T14:52:56.862Z,100366.71
2023-04-09T14:55:44.754Z,100374.38
2023-04-09T14:58:19.980Z,100373.47
2023-04-09T15:00:59.067Z,100380.73
2023-04-09T15:03:31.124Z,100377.09
2023-04-09T15:06:12.684Z,100378.52
2023-04-09T15:08:41.126Z,100374.17
2023-04-09T15:11:23.178Z,100376.39
2023-04-09T15:13:57.965Z,100373.74
2023-04-09T15:16:28.479Z,100371.46
2023-04-09T15:19:05.115Z,100370.27
2023-04-09T15:21:38.907Z,100369.21
2023-04-09T15:24:07.140Z,100370.67
2023-04-09T15:26:39.224Z,100370.88
2023-04-09T15:29:22.375Z,100370.13
2023-04-09T15:31:56.323Z,100371.58
2023-04-09T15:34:32.752Z,100373.08
2023-04-09T15:37:03.549Z,100373.98
2023-04-09T15:39:32.698Z,100374.73
2023-04-09T15:42:02.392Z,100366.88
2023-04-09T15:44:32.122Z,100364.70
2023-04-09T15:47:12.446Z,100366.70
2023-04-09T15:49:43.133Z,100364.27
2023-04-09T15:52:16.049Z,100365.52
2023-04-09T15:54:46.997Z,100360.54
2023-04-09T15:57:22.209Z,100356.14
2023-04-09T15:59:50.261Z,100353.48
2023-04-09T16:02:25.961Z,100351.92
2023-04-09T16:04:56.543Z,100358.04
2023-04-09T16:07:25.706Z,100355.26
2023-04-09T16:09:54.647Z,100354.08
2023-04-09T16:12:26.050Z,100351.02
2023-04-09T16:15:07.616Z,100343.37
2023-04-09T16:17:40.766Z,100341.69
2023-04-09T16:20:11.726Z,100343.86
2023-04-09T16:22:45.364Z,100346.11
2023-04-09T16:25:14.515Z,100345.72
2023-04-09T16:27:49.188Z,100344.26
2023-04-09T16:30:23.773Z,100348.14
2023-04-09T16:32:56.883Z,100350.01
2023-04-09T16:35:27.391Z,100348.61
2023-04-09T16:38:09.671Z,100349.29
2023-04-09T16:40:46.532Z,100347.79
2023-04-09T16:43:19.476Z,100345.06
2023-04-09T16:45:50.053Z,100344.38
2023-04-09T16:48:37.270Z,100347.69
2023-04-09T16:51:12.987Z,100349.56
2023-04-09T16:53:45.856Z,100352.54
2023-04-09T16:56:18.970Z,100352.86
2023-04-09T16:58:47.367Z,100352.30
2023-04-09T17:01:22.935Z,100355.96
2023-04-09T17:03:55.097Z,100360.41
2023-04-09T17:06:24.030Z,100357.72
2023-04-09T17:08:53.757Z,100372.25
2023-04-09T17:11:24.178Z,100366.38
2023-04-09T17:13:55.905Z,100370.80
2023-04-09T17:16:24.904Z,100369.93
2023-04-09T17:18:53.469Z,100372.30
2023-04-09T17:21:27.479Z,100372.45
2023-04-09T17:23:57.340Z,100368.52
2023-04-09T17:26:25.513Z,100371.64
2023-04-09T17:29:00.349Z,100367.34
2023-04-09T17:31:29.064Z,100375.68
2023-04-09T17:34:17.181Z,100378.30
2023-04-09T17:37:00.981Z,100383.73
2023-04-09T17:39:29.853Z,100385.05
2023-04-09T17:41:58.483Z,100385.34
2023-04-09T17:44:28.690Z,100386.83
2023-04-09T17:47:05.263Z,100391.67
2023-04-09T17:49:34.441Z,100395.64
2023-04-09T17:52:06.298Z,100392.47
2023-04-09T17:54:35.010Z,100397.69
2023-04-09T17:57:07.384Z,100398.95
2023-04-09T17:59:42.467Z,100402.23
2023-04-09T18:02:16.578Z,100402.92
2023-04-09T18:07:03.881Z,100414.17
2023-04-09T18:09:38.649Z,100414.16
2023-04-09T18:12:06.218Z,100413.39
2023-04-09T18:14:47.847Z,100416.17
2023-04-09T18:17:16.465Z,100416.89
2023-04-09T18:19:43.386Z,100419.93
2023-04-09T18:22:14.285Z,100415.66
2023-04-09T18:24:41.520Z,100417.89
2023-04-09T18:27:08.489Z,100417.99
2023-04-09T18:29:40.942Z,100417.77
2023-04-09T18:32:08.601Z,100415.51
2023-04-09T18:34:37.600Z,100416.55
2023-04-09T18:37:04.392Z,100417.54
2023-04-09T18:40:05.414Z,100422.44
2023-04-09T18:42:33.188Z,100418.69
2023-04-09T18:45:00.231Z,100418.73
2023-04-09T18:47:29.594Z,100416.34
2023-04-09T18:49:57.378Z,100416.45
2023-04-09T18:52:27.009Z,100415.70
2023-04-09T18:55:11.203Z,100411.94
2023-04-09T18:57:38.423Z,100414.26
2023-04-09T19:00:06.595Z,100408.85
2023-04-09T19:02:34.005Z,100410.55
2023-04-09T19:05:02.719Z,100409.14
2023-04-09T19:07:31.509Z,100411.02
2023-04-09T19:09:58.410Z,100411.90
2023-04-09T19:12:28.109Z,100409.20
2023-04-09T19:14:56.339Z,100411.52
2023-04-09T19:17:23.793Z,100410.77
2023-04-09T19:19:52.138Z,100411.73
2023-04-09T19:22:19.127Z,100414.16
2023-04-09T19:24:46.080Z,100415.35
2023-04-09T19:27:13.477Z,100415.98
2023-04-09T19:29:40.554Z,100417.50
2023-04-09T19:32:12.793Z,100412.23
2023-04-09T19:34:41.180Z,100415.45
2023-04-09T19:37:07.918Z,100413.09
2023-04-09T19:39:35.168Z,100415.08
2023-04-09T19:42:02.376Z,100415.95
2023-04-09T19:44:31.588Z,100411.70
2023-04-09T19:46:58.479Z,100408.95
2023-04-09T19:49:27.976Z,100410.31
2023-04-09T19:52:00.383Z,100407.96
2023-04-09T19:54:30.194Z,100413.63
2023-04-09T19:57:09.049Z,100406.20
2023-04-09T19:59:39.167Z,100407.91
2023-04-09T20:02:08.538Z,100406.89
2023-04-09T20:04:35.920Z,100407.58
2023-04-09T20:07:03.737Z,100402.27
2023-04-09T20:09:41.830Z,100405.98
2023-04-09T20:12:10.163Z,100406.60
2023-04-09T20:14:40.090Z,100408.36
2023-04-09T20:17:10.139Z,100406.45
2023-04-09T20:19:39.318Z,100405.70
2023-04-09T20:22:06.168Z,100413.10
2023-04-09T20:24:34.693Z,100414.65
2023-04-09T20:27:01.613Z,100412.04
2023-04-09T20:29:29.164Z,100408.39
2023-04-09T20:32:02.681Z,100411.66
2023-04-09T20:34:30.135Z,100411.02
2023-04-09T20:36:57.155Z,100414.14
2023-04-09T20:39:26.087Z,100413.52
2023-04-09T20:41:53.682Z,100411.23
2023-04-09T20:44:20.935Z,100412.73
2023-04-09T20:46:47.879Z,100413.98
2023-04-09T20:49:15.263Z,100409.20
2023-04-09T20:51:45.745Z,100407.96
2023-04-09T20:54:12.740Z,100408.96
2023-04-09T20:56:39.371Z,100415.67
2023-04-09T20:59:06.636Z,100413.20
2023-04-09T21:01:34.240Z,100411.89
2023-04-09T21:04:01.189Z,100407.36
2023-04-09T21:06:30.056Z,100406.27
2023-04-09T21:08:58.699Z,100401.77
2023-04-09T21:11:26.687Z,100402.48
2023-04-09T21:13:55.618Z,100399.23
2023-04-09T21:16:25.551Z,100397.68
2023-04-09T21:18:52.833Z,100399.66
2023-04-09T21:21:30.097Z,100402.83
2023-04-09T21:23:57.023Z,100401.83
2023-04-09T21:26:24.560Z,100398.58
2023-04-09T21:28:56.725Z,100404.89
2023-04-09T21:31:23.642Z,100404.19
2023-04-09T21:33:50.736Z,100398.30
2023-04-09T21:36:19.472Z,100401.98
2023-04-09T21:38:46.290Z,100404.01
2023-04-09T21:41:13.923Z,100406.36
2023-04-09T21:43:41.908Z,100406.66
2023-04-09T21:46:08.687Z,100409.80
2023-04-09T21:48:35.877Z,100408.44
2023-04-09T21:51:03.054Z,100407.02
2023-04-09T21:53:35.471Z,100408.00
2023-04-09T21:56:04.806Z,100406.03
2023-04-09T21:58:31.980Z,100407.70
2023-04-09T22:00:58.863Z,100407.29
2023-04-09T22:03:27.011Z,100410.00
2023-04-09T22:05:54.243Z,100407.21
2023-04-09T22:08:21.090Z,100408.41
2023-04-09T22:10:47.781Z,100405.80
2023-04-09T22:13:21.540Z,100405.80
2023-04-09T22:15:48.534Z,100405.56
2023-04-09T22:18:15.752Z,100401.02
2023-04-09T22:20:45.659Z,100401.60
2023-04-09T22:23:13.008Z,100401.05
2023-04-09T22:25:40.054Z,100401.20
2023-04-09T22:28:10.286Z,100398.19
2023-04-09T22:30:40.423Z,100397.40
2023-04-09T22:33:08.249Z,100396.73
2023-04-09T22:35:35.782Z,100397.77
2023-04-09T22:38:03.499Z,100391.02
2023-04-09T22:40:30.279Z,100391.09
2023-04-09T22:42:57.318Z,100387.94
2023-04-09T22:45:27.301Z,100386.67
2023-04-09T22:47:55.165Z,100384.66
2023-04-09T22:50:22.044Z,100384.09
2023-04-09T22:52:51.004Z,100379.15
2023-04-09T22:55:17.735Z,100377.92
2023-04-09T22:57:46.127Z,100385.75
2023-04-09T23:00:13.854Z,100386.64
2023-04-09T23:02:41.292Z,100389.01
2023-04-09T23:05:09.183Z,100392.61
2023-04-09T23:07:36.271Z,100389.98
2023-04-09T23:10:03.112Z,100393.90
2023-04-09T23:12:32.772Z,100397.18
2023-04-09T23:14:59.582Z,100397.76
2023-04-09T23:17:27.124Z,100396.09
2023-04-09T23:19:53.735Z,100391.11
2023-04-09T23:22:20.710Z,100389.88
2023-04-09T23:24:47.421Z,100385.93
2023-04-09T23:27:14.112Z,100386.84
2023-04-09T23:29:40.827Z,100383.08
2023-04-09T23:32:07.481Z,100385.35
2023-04-09T23:34:34.216Z,100385.87
2023-04-09T23:37:00.990Z,100381.67
2023-04-09T23:39:27.699Z,100379.45
2023-04-09T23:41:55.318Z,100378.84
2023-04-09T23:44:27.586Z,100376.91
2023-04-09T23:46:54.512Z,100378.54
2023-04-09T23:49:21.287Z,100379.74
2023-04-09T23:51:50.834Z,100378.36
2023-04-09T23:54:17.971Z,100379.68
2023-04-09T23:56:46.202Z,100381.33
2023-04-09T23:59:13.303Z,100383.28
